Time;durP1;ratioP1;P1;durP2;ratioP2;P2;SDS_P1;SDS_P2;PMS_P1;PMS_P2;Temp;Humidity;BMP_temperature;BMP_pressure;BME280_temperature;BME280_humidity;BME280_pressure;Samples;Min_cycle;Max_cycle;Signal;HPM_P1;HPM_P2
2022/12/02 00:01:48;;;;;;;;;;;;;;;21.92;44.68;102546.59;7255970;19;154382;-56
2022/12/02 00:04:24;;;;;;;;;;;;;;;21.94;44.62;102540.72;7256138;19;153296;-55
2022/12/02 00:06:53;;;;;;;;;;;;;;;21.97;44.40;102542.97;7262337;19;154268;-55
2022/12/02 00:09:30;;;;;;;;;;;;;;;21.98;44.62;102537.06;7258587;19;152376;-55
2022/12/02 00:11:57;;;;;;;;;;;;;;;21.99;44.63;102530.28;7254010;19;152857;-55
2022/12/02 00:14:25;;;;;;;;;;;;;;;22.00;44.08;102529.16;7253839;19;154147;-55
2022/12/02 00:16:52;;;;;;;;;;;;;;;22.00;44.16;102520.72;7255033;19;152540;-55
2022/12/02 00:19:20;;;;;;;;;;;;;;;22.01;44.18;102519.59;7256708;19;153609;-55
2022/12/02 00:21:48;;;;;;;;;;;;;;;22.02;43.90;102507.22;7252585;19;156355;-55
2022/12/02 00:24:16;;;;;;;;;;;;;;;22.03;43.80;102508.91;7258062;19;153184;-55
2022/12/02 00:26:43;;;;;;;;;;;;;;;22.03;44.23;102505.25;7253123;19;154512;-55
2022/12/02 00:29:10;;;;;;;;;;;;;;;22.03;43.71;102499.63;7260296;19;153992;-55
2022/12/02 00:31:37;;;;;;;;;;;;;;;22.04;44.14;102504.13;7257420;19;154757;-55
2022/12/02 00:34:05;;;;;;;;;;;;;;;22.03;44.07;102494.81;7252965;19;154689;-55
2022/12/02 00:36:32;;;;;;;;;;;;;;;22.02;43.62;102498.78;7254560;19;154405;-55
2022/12/02 00:38:59;;;;;;;;;;;;;;;22.03;44.11;102494.00;7257662;19;153934;-55
2022/12/02 00:41:26;;;;;;;;;;;;;;;22.02;43.97;102487.53;7254285;19;154671;-55
2022/12/02 00:46:31;;;;;;;;;;;;;;;21.99;43.73;102487.22;7256935;19;153911;-55
2022/12/02 00:48:58;;;;;;;;;;;;;;;21.97;44.07;102484.72;7254705;19;156103;-55
2022/12/02 00:51:25;;;;;;;;;;;;;;;21.93;43.88;102488.38;7260943;19;153741;-55
2022/12/02 00:53:52;;;;;;;;;;;;;;;21.86;44.30;102488.59;7254674;19;154107;-55
2022/12/02 00:56:19;;;;;;;;;;;;;;;21.81;44.34;102494.22;7252205;19;152629;-55
2022/12/02 00:58:46;;;;;;;;;;;;;;;21.74;44.61;102491.69;7255281;19;154829;-55
2022/12/02 01:01:13;;;;;;;;;;;;;;;21.70;44.95;102496.19;7254330;19;153285;-55
2022/12/02 01:03:40;;;;;;;;;;;;;;;21.65;44.96;102501.81;7256072;19;152334;-55
2022/12/02 01:06:11;;;;;;;;;;;;;;;21.59;45.00;102508.53;7254184;19;152821;-55
2022/12/02 01:08:38;;;;;;;;;;;;;;;21.57;45.00;102493.06;7254204;19;153692;-55
2022/12/02 01:11:05;;;;;;;;;;;;;;;21.51;45.35;102492.19;7252464;19;154261;-55
2022/12/02 01:13:32;;;;;;;;;;;;;;;21.49;45.43;102497.25;7260186;19;154136;-55
2022/12/02 01:15:59;;;;;;;;;;;;;;;21.46;45.53;102492.19;7254752;19;154389;-55
2022/12/02 01:18:25;;;;;;;;;;;;;;;21.45;45.78;102487.69;7256589;19;153754;-55
2022/12/02 01:20:52;;;;;;;;;;;;;;;21.41;45.87;102492.16;7253547;19;153301;-55
2022/12/02 01:23:20;;;;;;;;;;;;;;;21.41;45.81;102494.13;7255386;19;153177;-55
2022/12/02 01:25:47;;;;;;;;;;;;;;;21.35;45.74;102487.63;7252792;19;154457;-55
2022/12/02 01:28:14;;;;;;;;;;;;;;;21.34;45.94;102491.59;7253388;19;154599;-55
2022/12/02 01:30:42;;;;;;;;;;;;;;;21.30;45.70;102487.66;7255229;19;152889;-55
2022/12/02 01:33:09;;;;;;;;;;;;;;;21.27;45.56;102491.84;7259853;19;155121;-55
2022/12/02 01:35:35;;;;;;;;;;;;;;;21.23;45.66;102485.09;7251759;19;153306;-55
2022/12/02 01:38:02;;;;;;;;;;;;;;;21.21;46.03;102489.31;7255190;19;154595;-55
2022/12/02 01:40:30;;;;;;;;;;;;;;;21.17;45.55;102483.38;7254095;19;153370;-55
2022/12/02 01:42:57;;;;;;;;;;;;;;;21.18;45.60;102475.78;7254055;19;153003;-56
2022/12/02 01:45:24;;;;;;;;;;;;;;;21.13;46.05;102465.38;7254423;19;154761;-55
2022/12/02 01:47:51;;;;;;;;;;;;;;;21.13;45.48;102473.81;7252274;19;154416;-55
2022/12/02 01:50:18;;;;;;;;;;;;;;;21.13;45.54;102475.75;7253621;19;153431;-55
2022/12/02 01:52:45;;;;;;;;;;;;;;;21.09;45.65;102475.44;7251893;19;154428;-55
2022/12/02 01:55:13;;;;;;;;;;;;;;;21.09;45.58;102466.16;7260105;19;156126;-54
2022/12/02 01:57:40;;;;;;;;;;;;;;;21.06;45.89;102467.56;7254067;19;153493;-55
2022/12/02 02:00:07;;;;;;;;;;;;;;;21.04;45.75;102460.53;7253065;19;153388;-55
2022/12/02 02:02:35;;;;;;;;;;;;;;;21.02;45.77;102465.59;7253552;19;154593;-55
2022/12/02 02:05:11;;;;;;;;;;;;;;;20.99;45.81;102466.13;7252468;19;154491;-55
2022/12/02 02:07:39;;;;;;;;;;;;;;;20.97;45.84;102463.59;7252480;19;153026;-55
2022/12/02 02:10:07;;;;;;;;;;;;;;;20.95;46.13;102471.44;7252463;19;152214;-54
2022/12/02 02:12:34;;;;;;;;;;;;;;;20.94;45.69;102466.13;7251463;19;153524;-55
2022/12/02 02:15:04;;;;;;;;;;;;;;;20.93;46.29;102465.28;7248978;19;153955;-55
2022/12/02 02:17:31;;;;;;;;;;;;;;;20.91;45.92;102464.69;7259036;19;153942;-55
2022/12/02 02:19:58;;;;;;;;;;;;;;;20.89;45.97;102468.91;7250549;19;154542;-55
2022/12/02 02:22:28;;;;;;;;;;;;;;;20.88;46.08;102468.06;7253356;19;153460;-55
2022/12/02 02:24:55;;;;;;;;;;;;;;;20.84;46.19;102470.56;7251413;19;153752;-55
2022/12/02 02:27:22;;;;;;;;;;;;;;;20.82;45.96;102472.78;7251336;19;154869;-55
2022/12/02 02:29:49;;;;;;;;;;;;;;;20.81;45.99;102473.06;7266662;19;152780;-55
2022/12/02 02:32:16;;;;;;;;;;;;;;;20.77;46.12;102472.78;7267186;19;153458;-55
2022/12/02 02:34:43;;;;;;;;;;;;;;;20.77;46.20;102466.31;7265692;19;156241;-55
2022/12/02 02:37:10;;;;;;;;;;;;;;;20.74;46.27;102464.03;7264537;19;152412;-55
2022/12/02 02:39:37;;;;;;;;;;;;;;;20.73;46.42;102471.63;7272114;19;153811;-55
2022/12/02 02:42:03;;;;;;;;;;;;;;;20.72;46.18;102469.94;7267949;19;153287;-55
2022/12/02 02:44:31;;;;;;;;;;;;;;;20.69;46.17;102469.63;7266732;19;154850;-55
2022/12/02 02:46:57;;;;;;;;;;;;;;;20.66;46.21;102459.81;7264317;19;155038;-55
2022/12/02 02:49:25;;;;;;;;;;;;;;;20.65;46.53;102466.53;7267492;19;153338;-55
2022/12/02 02:51:52;;;;;;;;;;;;;;;20.64;46.34;102464.00;7267018;19;154668;-55
2022/12/02 02:54:18;;;;;;;;;;;;;;;20.60;46.65;102452.47;7265818;19;152276;-55
2022/12/02 02:56:45;;;;;;;;;;;;;;;20.60;46.67;102448.81;7264263;19;154568;-55
2022/12/02 02:59:13;;;;;;;;;;;;;;;20.57;46.44;102446.56;7266303;19;153680;-55
2022/12/02 03:01:41;;;;;;;;;;;;;;;20.56;46.67;102444.84;7273559;19;155078;-54
2022/12/02 03:04:10;;;;;;;;;;;;;;;20.53;46.65;102439.78;7264895;19;153524;-54
2022/12/02 03:06:38;;;;;;;;;;;;;;;20.52;46.98;102430.53;7263063;19;153700;-55
2022/12/02 03:09:07;;;;;;;;;;;;;;;20.50;46.94;102437.50;7265803;19;153200;-55
2022/12/02 03:11:35;;;;;;;;;;;;;;;20.48;46.93;102439.75;7264661;19;154013;-54
2022/12/02 03:14:03;;;;;;;;;;;;;;;20.48;47.25;102439.75;7264394;19;153846;-54
2022/12/02 03:16:31;;;;;;;;;;;;;;;20.46;47.02;102434.41;7261331;19;153155;-54
2022/12/02 03:18:58;;;;;;;;;;;;;;;20.40;47.03;102447.56;7266339;19;153777;-54
2022/12/02 03:21:28;;;;;;;;;;;;;;;20.38;47.46;102437.72;7260728;19;153329;-55
2022/12/02 03:23:57;;;;;;;;;;;;;;;20.37;47.55;102450.91;7273710;19;152882;-55
2022/12/02 03:26:24;;;;;;;;;;;;;;;20.34;47.55;102445.84;7262526;19;155579;-55
2022/12/02 03:28:52;;;;;;;;;;;;;;;20.31;47.62;102448.34;7262577;19;153019;-55
2022/12/02 03:31:19;;;;;;;;;;;;;;;20.30;47.55;102444.72;7262252;19;154220;-55
2022/12/02 03:33:47;;;;;;;;;;;;;;;20.29;47.98;102437.38;7265165;19;154386;-55
2022/12/02 03:36:14;;;;;;;;;;;;;;;20.26;47.69;102434.25;7258310;19;152232;-55
2022/12/02 03:38:41;;;;;;;;;;;;;;;20.24;47.90;102428.91;7262767;19;153878;-55
2022/12/02 03:41:09;;;;;;;;;;;;;;;20.21;47.89;102431.41;7254629;19;153834;-55
2022/12/02 03:43:35;;;;;;;;;;;;;;;20.20;47.78;102433.38;7264021;19;153648;-55
2022/12/02 03:46:03;;;;;;;;;;;;;;;20.20;47.77;102426.91;7255973;19;154178;-55
2022/12/02 03:48:31;;;;;;;;;;;;;;;20.17;48.15;102421.84;7256744;19;154011;-55
2022/12/02 03:50:58;;;;;;;;;;;;;;;20.15;48.16;102416.50;7258193;19;153706;-54
2022/12/02 03:53:25;;;;;;;;;;;;;;;20.15;47.99;102421.25;7257503;19;153537;-55
2022/12/02 03:55:52;;;;;;;;;;;;;;;20.13;47.98;102415.91;7258719;19;153978;-55
2022/12/02 03:58:19;;;;;;;;;;;;;;;20.12;48.22;102421.81;7257953;19;153149;-55
2022/12/02 04:00:45;;;;;;;;;;;;;;;20.16;48.07;102421.00;7256827;19;153934;-55
2022/12/02 04:03:12;;;;;;;;;;;;;;;20.14;48.23;102412.00;7258863;19;153324;-55
2022/12/02 04:05:39;;;;;;;;;;;;;;;20.19;48.15;102416.78;7263517;19;153339;-55
2022/12/02 04:08:14;;;;;;;;;;;;;;;20.13;47.86;102418.72;7257209;19;153163;-55
2022/12/02 04:10:41;;;;;;;;;;;;;;;20.08;48.37;102415.06;7258023;19;154619;-56
2022/12/02 04:13:08;;;;;;;;;;;;;;;20.04;48.04;102414.72;7253601;19;154167;-55
2022/12/02 04:15:35;;;;;;;;;;;;;;;20.02;47.97;102404.91;7257045;19;154130;-55
2022/12/02 04:18:01;;;;;;;;;;;;;;;19.99;48.21;102395.88;7254884;19;154238;-56
2022/12/02 04:20:28;;;;;;;;;;;;;;;19.98;48.16;102396.19;7255619;19;153391;-55
2022/12/02 04:22:55;;;;;;;;;;;;;;;19.95;48.12;102386.31;7257815;19;153451;-56
2022/12/02 04:25:21;;;;;;;;;;;;;;;19.95;48.04;102393.91;7257827;19;154553;-55
2022/12/02 04:27:48;;;;;;;;;;;;;;;19.91;48.17;102384.31;7262851;19;154626;-55
2022/12/02 04:30:15;;;;;;;;;;;;;;;19.89;48.44;102378.16;7251874;19;154088;-55
2022/12/02 04:32:41;;;;;;;;;;;;;;;19.89;48.32;102384.63;7257117;19;155264;-55
2022/12/02 04:35:08;;;;;;;;;;;;;;;19.86;48.22;102384.28;7253857;19;152554;-55
2022/12/02 04:37:35;;;;;;;;;;;;;;;19.84;48.48;102378.97;7254299;19;155064;-56
2022/12/02 04:40:02;;;;;;;;;;;;;;;19.82;48.28;102375.56;7255583;19;153483;-56
2022/12/02 04:42:29;;;;;;;;;;;;;;;19.78;48.67;102374.41;7256692;19;153121;-56
2022/12/02 04:44:55;;;;;;;;;;;;;;;19.80;48.48;102374.16;7258564;19;153376;-56
2022/12/02 04:47:22;;;;;;;;;;;;;;;19.78;48.37;102373.56;7256147;19;152912;-56
2022/12/02 04:49:49;;;;;;;;;;;;;;;19.74;48.31;102364.84;7265892;19;154225;-56
2022/12/02 04:52:16;;;;;;;;;;;;;;;19.74;48.27;102361.22;7256942;19;154273;-56
2022/12/02 04:54:43;;;;;;;;;;;;;;;19.71;48.71;102358.94;7258076;19;153720;-56
2022/12/02 04:57:09;;;;;;;;;;;;;;;19.71;48.71;102356.16;7253923;19;153305;-56
2022/12/02 04:59:36;;;;;;;;;;;;;;;19.69;48.81;102355.56;7254555;19;154589;-56
2022/12/02 05:02:03;;;;;;;;;;;;;;;19.67;48.82;102355.81;7256157;19;154191;-55
2022/12/02 05:04:29;;;;;;;;;;;;;;;19.66;48.77;102361.72;7254104;19;155630;-56
2022/12/02 05:07:03;;;;;;;;;;;;;;;19.64;48.80;102359.16;7254360;19;153715;-55
2022/12/02 05:09:30;;;;;;;;;;;;;;;19.64;49.01;102358.31;7253923;19;153132;-55
2022/12/02 05:11:57;;;;;;;;;;;;;;;19.63;49.03;102353.81;7259421;19;154307;-55
2022/12/02 05:14:23;;;;;;;;;;;;;;;19.60;49.01;102355.22;7253735;19;152310;-55
2022/12/02 05:16:50;;;;;;;;;;;;;;;19.59;48.90;102347.91;7254692;19;154567;-55
2022/12/02 05:19:17;;;;;;;;;;;;;;;19.57;49.45;102352.94;7256174;19;154093;-55
2022/12/02 05:21:43;;;;;;;;;;;;;;;19.59;49.48;102353.50;7255971;19;153119;-55
2022/12/02 05:24:11;;;;;;;;;;;;;;;19.66;49.91;102350.50;7252860;19;154073;-55
2022/12/02 05:26:37;;;;;;;;;;;;;;;19.73;49.76;102354.75;7254233;19;155205;-55
2022/12/02 05:29:05;;;;;;;;;;;;;;;19.85;49.70;102354.56;7253372;19;153696;-55
2022/12/02 05:31:31;;;;;;;;;;;;;;;19.92;50.28;102349.56;7255810;19;153880;-55
2022/12/02 05:33:58;;;;;;;;;;;;;;;19.97;49.75;102350.44;7261567;19;153343;-55
2022/12/02 05:36:25;;;;;;;;;;;;;;;20.02;49.85;102346.81;7253420;19;153852;-55
2022/12/02 05:38:52;;;;;;;;;;;;;;;20.07;49.76;102346.00;7254827;19;155888;-55
2022/12/02 05:41:18;;;;;;;;;;;;;;;20.10;50.01;102337.88;7255285;19;154698;-55
2022/12/02 05:43:45;;;;;;;;;;;;;;;20.14;50.19;102344.66;7251624;19;153028;-55
2022/12/02 05:46:13;;;;;;;;;;;;;;;20.19;50.43;102346.63;7254070;19;154082;-55
2022/12/02 05:48:41;;;;;;;;;;;;;;;20.21;50.81;102342.47;7254932;19;153665;-55
2022/12/02 05:51:10;;;;;;;;;;;;;;;20.26;50.97;102348.06;7253854;19;154155;-55
2022/12/02 05:53:37;;;;;;;;;;;;;;;20.31;50.86;102350.09;7262386;19;153702;-55
2022/12/02 05:56:06;;;;;;;;;;;;;;;20.36;50.66;102348.16;7252585;19;154264;-55
2022/12/02 05:58:32;;;;;;;;;;;;;;;20.40;50.90;102340.88;7251366;19;154268;-56
2022/12/02 06:00:59;;;;;;;;;;;;;;;20.46;50.86;102346.53;7254938;19;152868;-55
2022/12/02 06:03:26;;;;;;;;;;;;;;;20.50;50.60;102347.66;7250084;19;155024;-55
2022/12/02 06:05:53;;;;;;;;;;;;;;;20.54;50.68;102335.59;7252938;19;153711;-55
2022/12/02 06:08:22;;;;;;;;;;;;;;;20.60;51.34;102339.28;7253538;19;154017;-55
2022/12/02 06:10:51;;;;;;;;;;;;;;;20.65;51.46;102345.78;7251102;19;153254;-55
2022/12/02 06:13:21;;;;;;;;;;;;;;;20.71;51.06;102335.41;7250159;19;156125;-55
2022/12/02 06:15:48;;;;;;;;;;;;;;;20.76;51.15;102341.00;7260814;19;153112;-55
2022/12/02 06:18:16;;;;;;;;;;;;;;;20.80;50.28;102336.56;7247795;19;156293;-55
2022/12/02 06:20:44;;;;;;;;;;;;;;;20.85;50.23;102339.34;7252637;19;153769;-55
2022/12/02 06:23:14;;;;;;;;;;;;;;;20.91;50.12;102334.59;7253155;19;153313;-55
2022/12/02 06:25:41;;;;;;;;;;;;;;;20.95;49.89;102335.72;7249627;19;153806;-55
2022/12/02 06:28:21;;;;;;;;;;;;;;;20.99;49.74;102329.28;7253778;19;154300;-56
2022/12/02 06:30:48;;;;;;;;;;;;;;;21.06;49.85;102338.28;7250300;19;154132;-55
2022/12/02 06:33:21;;;;;;;;;;;;;;;21.10;49.48;102333.81;7250568;19;154331;-55
2022/12/02 06:35:48;;;;;;;;;;;;;;;21.15;49.29;102328.22;7254080;19;153825;-55
2022/12/02 06:38:21;;;;;;;;;;;;;;;21.19;49.21;102329.34;7257524;19;153649;-55
2022/12/02 06:40:48;;;;;;;;;;;;;;;21.26;49.13;102331.88;7253286;19;153269;-55
2022/12/02 06:43:19;;;;;;;;;;;;;;;21.31;48.99;102329.06;7252376;19;153321;-55
2022/12/02 06:45:46;;;;;;;;;;;;;;;21.35;48.96;102318.94;7251634;19;154948;-55
2022/12/02 06:48:23;;;;;;;;;;;;;;;21.40;49.16;102327.38;7249951;19;153793;-55
2022/12/02 06:50:50;;;;;;;;;;;;;;;21.46;49.11;102328.22;7253431;19;153657;-55
2022/12/02 06:53:25;;;;;;;;;;;;;;;21.49;49.09;102317.25;7251232;19;154122;-55
2022/12/02 06:55:53;;;;;;;;;;;;;;;21.54;48.61;102317.25;7252712;19;153979;-56
2022/12/02 06:58:30;;;;;;;;;;;;;;;21.58;49.32;102324.00;7249001;19;153509;-55
2022/12/02 07:01:07;;;;;;;;;;;;;;;21.63;49.27;102321.19;7259067;19;154227;-55
2022/12/02 07:03:37;;;;;;;;;;;;;;;21.67;49.12;102322.31;7252613;19;153166;-55
2022/12/02 07:06:14;;;;;;;;;;;;;;;21.72;49.16;102327.94;7249465;19;154929;-55
2022/12/02 07:08:41;;;;;;;;;;;;;;;21.76;49.18;102319.78;7252662;19;153203;-56
2022/12/02 07:11:17;;;;;;;;;;;;;;;21.80;48.78;102320.06;7251398;19;153934;-55
2022/12/02 07:13:44;;;;;;;;;;;;;;;21.85;49.06;102328.50;7252528;19;154276;-55
2022/12/02 07:16:21;;;;;;;;;;;;;;;21.88;48.72;102325.97;7257765;19;152531;-56
2022/12/02 07:18:47;;;;;;;;;;;;;;;21.93;48.55;102330.78;7258182;19;153832;-56
2022/12/02 07:21:14;;;;;;;;;;;;;;;21.96;48.46;102322.59;7255043;19;153808;-54
2022/12/02 07:23:41;;;;;;;;;;;;;;;22.01;48.37;102327.38;7265296;19;154012;-55
2022/12/02 07:26:08;;;;;;;;;;;;;;;22.04;48.25;102324.81;7257556;19;153357;-56
2022/12/02 07:28:39;;;;;;;;;;;;;;;22.07;48.19;102320.59;7259180;19;154788;-55
2022/12/02 07:31:16;;;;;;;;;;;;;;;22.11;48.23;102330.16;7258713;19;152823;-56
2022/12/02 07:33:43;;;;;;;;;;;;;;;22.14;48.10;102318.31;7255157;19;152578;-55
2022/12/02 07:36:10;;;;;;;;;;;;;;;22.17;47.93;102331.81;7257447;19;154993;-55
2022/12/02 07:38:36;;;;;;;;;;;;;;;22.18;47.85;102325.06;7257064;19;153375;-55
2022/12/02 07:41:23;;;;;;;;;;;;;;;22.23;47.49;102333.50;7255453;19;157595;-55
2022/12/02 07:43:50;;;;;;;;;;;;;;;22.24;47.55;102332.38;7267646;19;154759;-55
2022/12/02 07:46:16;;;;;;;;;;;;;;;22.27;47.17;102330.94;7256800;19;154372;-55
2022/12/02 07:48:43;;;;;;;;;;;;;;;22.29;47.09;102328.69;7258389;19;153297;-56
2022/12/02 07:51:10;;;;;;;;;;;;;;;22.31;47.51;102332.06;7257966;19;153556;-56
2022/12/02 07:53:37;;;;;;;;;;;;;;;22.33;47.16;102329.81;7258935;19;154357;-56
2022/12/02 07:56:04;;;;;;;;;;;;;;;22.36;47.16;102334.84;7255404;19;155645;-55
2022/12/02 07:58:30;;;;;;;;;;;;;;;22.38;47.36;102332.59;7257287;19;153687;-55
2022/12/02 08:01:17;;;;;;;;;;;;;;;22.40;47.60;102325.53;7257201;19;156145;-55
2022/12/02 08:03:45;;;;;;;;;;;;;;;22.43;47.34;102327.81;7256806;19;153613;-55
2022/12/02 08:06:12;;;;;;;;;;;;;;;22.46;47.11;102326.38;7263246;19;155243;-55
2022/12/02 08:08:39;;;;;;;;;;;;;;;22.49;47.31;102326.63;7255637;19;152231;-55
2022/12/02 08:11:05;;;;;;;;;;;;;;;22.52;47.95;102325.22;7255561;19;154889;-56
2022/12/02 08:13:32;;;;;;;;;;;;;;;22.56;48.22;102326.34;7255292;19;153917;-56
2022/12/02 08:15:59;;;;;;;;;;;;;;;22.58;47.96;102322.09;7256536;19;153711;-55
2022/12/02 08:18:26;;;;;;;;;;;;;;;22.61;47.29;102320.69;7257165;19;153983;-56
2022/12/02 08:20:52;;;;;;;;;;;;;;;22.63;47.48;102324.03;7268135;19;152975;-54
2022/12/02 08:23:19;;;;;;;;;;;;;;;22.66;46.99;102328.25;7274739;19;154129;-54
2022/12/02 08:25:47;;;;;;;;;;;;;;;22.67;47.06;102333.59;7273121;19;154518;-55
2022/12/02 08:28:13;;;;;;;;;;;;;;;22.69;46.70;102334.16;7278106;19;154414;-55
2022/12/02 08:30:40;;;;;;;;;;;;;;;22.71;46.73;102340.38;7269662;19;154362;-55
2022/12/02 08:33:08;;;;;;;;;;;;;;;22.74;46.55;102336.13;7269136;19;154725;-55
2022/12/02 08:35:35;;;;;;;;;;;;;;;22.75;46.66;102335.84;7272357;19;153017;-56
2022/12/02 08:38:02;;;;;;;;;;;;;;;22.78;46.96;102331.59;7270777;19;153521;-56
2022/12/02 08:40:29;;;;;;;;;;;;;;;22.74;40.58;102324.88;7268710;19;153851;-55
2022/12/02 08:42:57;;;;;;;;;;;;;;;22.57;40.73;102323.25;7271171;19;153895;-55
2022/12/02 08:45:24;;;;;;;;;;;;;;;22.58;41.23;102324.06;7272427;19;152747;-56
2022/12/02 08:47:51;;;;;;;;;;;;;;;22.57;40.98;102326.06;7274281;19;154131;-56
2022/12/02 08:50:18;;;;;;;;;;;;;;;22.54;41.29;102326.63;7279880;19;153480;-55
2022/12/02 08:52:45;;;;;;;;;;;;;;;22.52;41.25;102328.91;7270297;19;153670;-55
2022/12/02 08:55:13;;;;;;;;;;;;;;;22.48;40.99;102327.78;7269885;19;152241;-55
2022/12/02 08:57:40;;;;;;;;;;;;;;;22.45;41.08;102330.31;7271585;19;153485;-56
2022/12/02 09:00:08;;;;;;;;;;;;;;;22.41;41.52;102323.56;7269528;19;153243;-55
2022/12/02 09:02:36;;;;;;;;;;;;;;;22.38;41.15;102335.44;7271507;19;153229;-55
2022/12/02 09:05:06;;;;;;;;;;;;;;;22.36;41.31;102341.34;7272253;19;154085;-55
2022/12/02 09:07:34;;;;;;;;;;;;;;;22.36;41.76;102335.69;7268080;19;152663;-55
2022/12/02 09:10:03;;;;;;;;;;;;;;;22.37;41.58;102336.53;7270509;19;153315;-55
2022/12/02 09:12:30;;;;;;;;;;;;;;;22.36;41.80;102340.47;7278069;19;151955;-56
2022/12/02 09:14:57;;;;;;;;;;;;;;;22.37;41.63;102336.53;7270505;19;153814;-55
2022/12/02 09:17:25;;;;;;;;;;;;;;;22.37;41.74;102328.09;7270587;19;153764;-55
2022/12/02 09:19:52;;;;;;;;;;;;;;;22.37;41.59;102328.09;7265262;19;153894;-55
2022/12/02 09:22:20;;;;;;;;;;;;;;;22.37;41.80;102330.91;7270575;19;153277;-55
2022/12/02 09:24:47;;;;;;;;;;;;;;;22.37;41.72;102328.09;7268984;19;154418;-55
2022/12/02 09:27:15;;;;;;;;;;;;;;;22.38;41.95;102329.78;7270701;19;153701;-55
2022/12/02 09:29:42;;;;;;;;;;;;;;;22.38;41.48;102324.16;7269810;19;153031;-55
2022/12/02 09:32:09;;;;;;;;;;;;;;;22.38;41.39;102321.34;7273872;19;153370;-55
2022/12/02 09:34:37;;;;;;;;;;;;;;;22.38;41.75;102326.97;7281923;19;154035;-55
2022/12/02 09:37:04;;;;;;;;;;;;;;;22.37;41.78;102323.31;7268381;19;154191;-55
2022/12/02 09:39:32;;;;;;;;;;;;;;;22.38;41.50;102321.34;7205291;19;155113;-56
2022/12/02 09:42:05;;;;;;;;;;;;;;;22.38;41.81;102326.97;7258747;19;153240;-55
2022/12/02 09:44:33;;;;;;;;;;;;;;;22.39;41.58;102326.69;7266489;19;153710;-55
2022/12/02 09:47:00;;;;;;;;;;;;;;;22.40;41.18;102328.34;7259417;19;154350;-55
2022/12/02 09:49:28;;;;;;;;;;;;;;;22.40;41.36;102317.09;7254755;19;153221;-55
2022/12/02 09:51:57;;;;;;;;;;;;;;;22.40;41.19;102316.25;7252152;19;154522;-55
2022/12/02 09:54:27;;;;;;;;;;;;;;;22.41;41.41;102326.38;7257092;19;154500;-55
2022/12/02 09:56:54;;;;;;;;;;;;;;;22.41;41.46;102323.56;7250279;19;154973;-55
2022/12/02 09:59:21;;;;;;;;;;;;;;;22.40;40.85;102328.34;7248987;19;153910;-55
2022/12/02 10:01:48;;;;;;;;;;;;;;;22.39;41.06;102329.50;7252658;19;152377;-55
2022/12/02 10:04:17;;;;;;;;;;;;;;;22.39;40.97;102329.50;7250753;19;155027;-55
2022/12/02 10:06:44;;;;;;;;;;;;;;;22.38;40.72;102336.28;7254158;19;153986;-55
2022/12/02 10:09:13;;;;;;;;;;;;;;;22.36;40.72;102327.25;7254105;19;153398;-55
2022/12/02 10:11:41;;;;;;;;;;;;;;;22.36;40.83;102341.34;7248485;19;153578;-55
2022/12/02 10:14:11;;;;;;;;;;;;;;;22.35;40.81;102333.19;7254745;19;153773;-56
2022/12/02 10:16:38;;;;;;;;;;;;;;;22.33;40.71;102327.84;7260470;19;153864;-55
2022/12/02 10:19:06;;;;;;;;;;;;;;;22.33;40.71;102332.63;7250512;19;153596;-55
2022/12/02 10:21:33;;;;;;;;;;;;;;;22.32;40.55;102330.94;7249378;19;153920;-55
2022/12/02 10:24:02;;;;;;;;;;;;;;;22.30;40.61;102327.56;7255009;19;153430;-55
2022/12/02 10:26:32;;;;;;;;;;;;;;;22.28;40.81;102333.47;7246182;19;154709;-55
2022/12/02 10:29:02;;;;;;;;;;;;;;;22.25;40.57;102322.81;7249700;19;153503;-55
2022/12/02 10:31:29;;;;;;;;;;;;;;;22.24;40.69;102326.75;7247818;19;153112;-55
2022/12/02 10:33:57;;;;;;;;;;;;;;;22.20;40.74;102320.00;7246590;19;153797;-55
2022/12/02 10:36:28;;;;;;;;;;;;;;;22.15;40.40;102318.03;7241998;19;154017;-55
2022/12/02 10:38:54;;;;;;;;;;;;;;;22.13;40.94;102317.47;7253915;19;154430;-55
2022/12/02 10:41:24;;;;;;;;;;;;;;;22.07;40.75;102326.25;7244620;19;153802;-55
2022/12/02 10:43:52;;;;;;;;;;;;;;;22.01;40.94;102322.59;7242277;19;154247;-55
2022/12/02 10:46:19;;;;;;;;;;;;;;;21.98;40.73;102314.72;7247530;19;152665;-55
2022/12/02 10:48:47;;;;;;;;;;;;;;;21.96;40.78;102313.31;7247256;19;154291;-55
2022/12/02 10:51:14;;;;;;;;;;;;;;;21.89;40.98;102304.28;7252647;19;154569;-55
2022/12/02 10:53:42;;;;;;;;;;;;;;;21.84;41.38;102310.78;7254606;19;155477;-55
2022/12/02 10:56:14;;;;;;;;;;;;;;;21.80;41.06;102298.41;7255932;19;153899;-55
2022/12/02 10:58:41;;;;;;;;;;;;;;;21.80;41.13;102304.03;7254516;19;153310;-55
2022/12/02 11:01:10;;;;;;;;;;;;;;;21.76;41.37;102302.06;7258967;19;153940;-55
2022/12/02 11:03:37;;;;;;;;;;;;;;;21.73;41.53;102289.41;7255586;19;154402;-55
2022/12/02 11:06:04;;;;;;;;;;;;;;;21.68;41.55;102284.63;7253535;19;153991;-55
2022/12/02 11:08:32;;;;;;;;;;;;;;;21.67;41.23;102280.13;7253744;19;152247;-55
2022/12/02 11:11:02;;;;;;;;;;;;;;;21.63;41.57;102281.81;7252902;19;153569;-55
2022/12/02 11:13:44;;;;;;;;;;;;;;;21.63;41.52;102283.78;7255132;19;156030;-55
2022/12/02 11:16:16;;;;;;;;;;;;;;;21.69;41.34;102291.09;7254400;19;154661;-56
2022/12/02 11:18:47;;;;;;;;;;;;;;;21.71;42.03;102286.03;7254456;19;155280;-55
2022/12/02 11:21:17;;;;;;;;;;;;;;;21.77;41.70;102281.22;7256595;19;155209;-55
2022/12/02 11:23:46;;;;;;;;;;;;;;;21.82;41.97;102282.06;7267414;19;153920;-56
2022/12/02 11:26:14;;;;;;;;;;;;;;;21.83;42.27;102280.09;7257808;19;156501;-55
2022/12/02 11:28:44;;;;;;;;;;;;;;;21.85;42.22;102280.66;7258355;19;155480;-55
2022/12/02 11:31:13;;;;;;;;;;;;;;;21.86;42.18;102279.53;7257443;19;152840;-54
2022/12/02 11:33:43;;;;;;;;;;;;;;;21.89;42.16;102279.81;7257761;19;154489;-55
2022/12/02 11:36:20;;;;;;;;;;;;;;;21.92;42.13;102275.56;7258908;19;154077;-55
2022/12/02 11:38:47;;;;;;;;;;;;;;;21.94;42.56;102281.81;7258270;19;154324;-55
2022/12/02 11:41:15;;;;;;;;;;;;;;;21.96;42.37;102276.72;7254728;19;154113;-55
2022/12/02 11:43:44;;;;;;;;;;;;;;;21.98;42.40;102275.31;7251984;19;152728;-55
2022/12/02 11:46:13;;;;;;;;;;;;;;;22.01;42.45;102268.25;7262233;19;154568;-55
2022/12/02 11:48:44;;;;;;;;;;;;;;;22.03;42.16;102266.84;7257126;19;153713;-55
2022/12/02 11:51:14;;;;;;;;;;;;;;;22.04;42.18;102264.88;7257508;19;155390;-55
2022/12/02 11:53:49;;;;;;;;;;;;;;;22.07;42.27;102261.50;7255703;19;153967;-55
2022/12/02 11:56:16;;;;;;;;;;;;;;;22.08;42.27;102258.38;7250206;19;154012;-55
2022/12/02 11:58:44;;;;;;;;;;;;;;;22.10;42.38;102255.28;7250752;19;154816;-55
2022/12/02 12:01:11;;;;;;;;;;;;;;;22.13;42.29;102246.25;7252460;19;153826;-55
2022/12/02 12:03:40;;;;;;;;;;;;;;;22.14;41.97;102247.94;7259698;19;153934;-54
2022/12/02 12:06:08;;;;;;;;;;;;;;;22.14;41.91;102243.16;7266483;19;153656;-56
2022/12/02 12:08:36;;;;;;;;;;;;;;;22.15;42.04;102244.00;7258588;19;152433;-54
2022/12/02 12:11:07;;;;;;;;;;;;;;;22.15;41.78;102241.19;7250123;19;154985;-56
2022/12/02 12:13:54;;;;;;;;;;;;;;;22.16;41.78;102245.69;7254398;19;154335;-56
2022/12/02 12:16:22;;;;;;;;;;;;;;;22.16;42.08;102245.69;7258628;19;154339;-56
2022/12/02 12:18:49;;;;;;;;;;;;;;;22.16;41.98;102251.31;7257245;19;153889;-56
2022/12/02 12:21:20;;;;;;;;;;;;;;;22.15;41.92;102246.81;7254034;19;155278;-56
2022/12/02 12:23:47;;;;;;;;;;;;;;;22.16;41.95;102235.28;7254399;19;152550;-56
2022/12/02 12:26:17;;;;;;;;;;;;;;;22.16;41.72;102243.72;7252928;19;154072;-56
2022/12/02 12:28:44;;;;;;;;;;;;;;;22.13;42.08;102238.66;7258822;19;154400;-56
2022/12/02 12:31:11;;;;;;;;;;;;;;;22.12;41.76;102238.97;7249239;19;154669;-56
2022/12/02 12:33:38;;;;;;;;;;;;;;;22.08;41.82;102240.63;7251859;19;154252;-56
2022/12/02 12:36:06;;;;;;;;;;;;;;;22.07;41.97;102233.34;7251939;19;154194;-56